createdAt,value
2023-02-12T00:04:32.337Z,2.01
2023-02-12T00:09:40.206Z,2.02
2023-02-12T00:14:47.920Z,2.07
2023-02-12T00:19:55.477Z,2.13
2023-02-12T00:25:03.195Z,2.16
2023-02-12T00:30:12.414Z,2.17
2023-02-12T00:35:20.066Z,2.18
2023-02-12T00:40:27.310Z,2.20
2023-02-12T00:45:33.095Z,2.23
2023-02-12T00:50:41.460Z,2.23
2023-02-12T00:55:49.536Z,2.23
2023-02-12T01:00:58.098Z,2.30
2023-02-12T01:06:06.700Z,2.36
2023-02-12T01:11:16.459Z,2.42
2023-02-12T01:16:25.095Z,2.46
2023-02-12T01:21:34.388Z,2.47
2023-02-12T01:26:42.057Z,2.48
2023-02-12T01:31:49.734Z,2.52
2023-02-12T01:36:57.324Z,2.53
2023-02-12T01:42:06.359Z,2.54
2023-02-12T01:47:19.708Z,2.55
2023-02-12T01:52:30.138Z,2.55
2023-02-12T01:57:41.060Z,2.57
2023-02-12T02:02:50.754Z,2.62
2023-02-12T02:07:58.131Z,2.68
2023-02-12T02:13:21.326Z,2.69
2023-02-12T02:18:36.575Z,2.70
2023-02-12T02:29:00.109Z,2.78
2023-02-12T02:34:17.151Z,2.79
2023-02-12T02:39:32.009Z,2.82
2023-02-12T02:44:45.044Z,2.84
2023-02-12T02:49:56.432Z,2.82
2023-02-12T02:55:10.236Z,2.82
2023-02-12T03:00:25.682Z,2.81
2023-02-12T03:05:38.810Z,2.80
2023-02-12T03:10:50.922Z,2.80
2023-02-12T03:16:05.626Z,2.76
2023-02-12T03:21:18.866Z,2.72
2023-02-12T03:26:33.015Z,2.68
2023-02-12T03:31:55.896Z,2.65
2023-02-12T03:37:07.298Z,2.60
2023-02-12T03:42:20.844Z,2.58
2023-02-12T03:47:37.361Z,2.61
2023-02-12T03:52:46.817Z,2.64
2023-02-12T03:58:01.023Z,2.66
2023-02-12T04:03:09.139Z,2.66
2023-02-12T04:08:17.180Z,2.66
2023-02-12T04:13:34.241Z,2.66
2023-02-12T04:18:45.413Z,2.67
2023-02-12T04:24:04.688Z,2.70
2023-02-12T04:29:23.238Z,2.73
2023-02-12T04:34:39.583Z,2.74
2023-02-12T04:39:49.883Z,2.71
2023-02-12T04:44:57.316Z,2.68
2023-02-12T04:50:04.686Z,2.68
2023-02-12T04:55:10.690Z,2.66
2023-02-12T05:00:20.691Z,2.63
2023-02-12T05:05:28.489Z,2.57
2023-02-12T05:10:36.198Z,2.48
2023-02-12T05:15:44.706Z,2.42
2023-02-12T05:21:01.378Z,2.40
2023-02-12T05:26:12.526Z,2.39
2023-02-12T05:31:22.506Z,2.35
2023-02-12T05:36:30.585Z,2.27
2023-02-12T05:41:38.361Z,2.17
2023-02-12T05:46:46.325Z,2.07
2023-02-12T05:51:54.091Z,1.95
2023-02-12T05:57:01.537Z,1.83
2023-02-12T06:02:08.904Z,1.72
2023-02-12T06:07:16.254Z,1.62
2023-02-12T06:12:24.136Z,1.55
2023-02-12T06:17:31.494Z,1.48
2023-02-12T06:22:40.908Z,1.42
2023-02-12T06:27:48.290Z,1.37
2023-02-12T06:32:54.120Z,1.34
2023-02-12T06:38:02.078Z,1.28
2023-02-12T06:43:09.447Z,1.18
2023-02-12T06:48:15.000Z,1.11
2023-02-12T06:53:22.723Z,1.09
2023-02-12T06:58:30.118Z,1.08
2023-02-12T07:03:39.639Z,1.06
2023-02-12T07:08:48.072Z,1.07
2023-02-12T07:13:59.052Z,1.05
2023-02-12T07:19:06.575Z,1.05
2023-02-12T07:24:15.522Z,1.01
2023-02-12T07:29:22.716Z,0.97
2023-02-12T07:34:30.216Z,1.00
2023-02-12T07:39:37.828Z,1.00
2023-02-12T07:44:45.799Z,1.00
2023-02-12T07:49:53.434Z,1.01
2023-02-12T07:55:00.765Z,0.96
2023-02-12T08:00:11.011Z,0.95
2023-02-12T08:05:18.326Z,0.93
2023-02-12T08:10:25.523Z,0.98
2023-02-12T08:15:31.090Z,1.02
2023-02-12T08:20:38.622Z,1.01
2023-02-12T08:25:46.748Z,1.02
2023-02-12T08:31:03.544Z,1.03
2023-02-12T08:36:15.014Z,1.04
2023-02-12T08:41:26.571Z,1.00
2023-02-12T08:46:36.125Z,1.02
2023-02-12T08:51:48.940Z,1.05
2023-02-12T08:57:00.424Z,1.09
2023-02-12T09:02:09.053Z,1.10
2023-02-12T09:07:16.291Z,1.04
2023-02-12T09:12:22.792Z,0.97
2023-02-12T09:17:30.758Z,0.94
2023-02-12T09:22:40.068Z,0.96
2023-02-12T09:27:48.083Z,1.01
2023-02-12T09:32:56.301Z,0.99
2023-02-12T09:38:04.237Z,0.99
2023-02-12T09:43:19.131Z,1.01
2023-02-12T09:48:47.505Z,1.00
2023-02-12T09:54:02.942Z,0.97
2023-02-12T09:59:16.167Z,0.98
2023-02-12T10:04:24.921Z,1.07
2023-02-12T10:09:54.681Z,1.16
2023-02-12T10:15:16.299Z,1.17
2023-02-12T10:20:41.925Z,1.18
2023-02-12T10:25:54.394Z,1.20
2023-02-12T10:31:05.045Z,1.25
2023-02-12T10:36:24.810Z,1.32
2023-02-12T10:41:34.485Z,1.50
2023-02-12T10:46:43.228Z,1.66
2023-02-12T10:52:03.824Z,1.75
2023-02-12T10:57:15.784Z,1.72
2023-02-12T11:02:29.062Z,1.72
2023-02-12T11:07:49.917Z,1.70
2023-02-12T11:12:58.466Z,1.67
2023-02-12T11:19:37.929Z,1.75
2023-02-12T11:24:42.283Z,1.76
2023-02-12T11:29:49.198Z,1.86
2023-02-12T11:35:06.439Z,1.91
2023-02-12T11:40:19.749Z,1.92
2023-02-12T11:45:34.975Z,1.91
2023-02-12T11:50:46.111Z,1.88
2023-02-12T11:55:57.393Z,1.84
2023-02-12T12:01:09.138Z,1.88
2023-02-12T12:06:25.962Z,1.95
2023-02-12T12:11:38.417Z,1.94
2023-02-12T12:17:07.808Z,1.89
2023-02-12T12:22:23.282Z,1.83
2023-02-12T12:27:55.267Z,1.86
2023-02-12T12:33:03.541Z,1.95
2023-02-12T12:38:16.649Z,1.99
2023-02-12T12:43:31.059Z,2.03
2023-02-12T12:48:55.274Z,2.06
2023-02-12T12:54:20.472Z,2.17
2023-02-12T13:00:12.182Z,2.22
2023-02-12T13:05:53.078Z,2.22
2023-02-12T13:11:01.840Z,2.27
2023-02-12T13:20:49.022Z,2.43
2023-02-12T13:26:04.447Z,2.47
2023-02-12T13:36:45.396Z,2.55
2023-02-12T13:42:13.551Z,2.61
2023-02-12T13:47:30.337Z,2.69
2023-02-12T13:52:39.056Z,2.73
2023-02-12T13:57:46.451Z,2.78
2023-02-12T14:02:54.925Z,2.82
2023-02-12T14:08:06.504Z,2.87
2023-02-12T14:13:22.132Z,2.89
2023-02-12T14:18:36.443Z,2.93
2023-02-12T14:23:44.290Z,2.92
2023-02-12T14:28:57.806Z,2.92
2023-02-12T14:34:49.935Z,2.91
2023-02-12T14:40:37.782Z,2.89
2023-02-12T14:45:45.198Z,2.88
2023-02-12T14:50:53.824Z,2.87
2023-02-12T14:56:02.576Z,2.88
2023-02-12T15:01:10.852Z,2.87
2023-02-12T15:06:22.567Z,2.83
2023-02-12T15:11:37.148Z,2.79
2023-02-12T15:17:00.032Z,2.74
2023-02-12T15:22:24.503Z,2.71
2023-02-12T15:27:32.792Z,2.68
2023-02-12T15:32:43.238Z,2.62
2023-02-12T15:37:51.980Z,2.56
2023-02-12T15:43:01.868Z,2.49
2023-02-12T15:48:15.353Z,2.41
2023-02-12T15:53:24.477Z,2.32
2023-02-12T15:58:34.312Z,2.18
2023-02-12T16:03:43.780Z,1.99
2023-02-12T16:08:56.999Z,1.73
2023-02-12T16:14:11.024Z,1.44
2023-02-12T16:19:26.010Z,1.30
2023-02-12T16:24:37.279Z,1.36
2023-02-12T16:29:52.034Z,1.46
2023-02-12T16:35:06.088Z,1.48
2023-02-12T16:40:24.184Z,1.50
2023-02-12T16:45:46.546Z,1.49
2023-02-12T16:50:58.426Z,1.46
2023-02-12T16:56:07.440Z,1.37
2023-02-12T17:01:19.537Z,1.30
2023-02-12T17:06:29.706Z,1.29
2023-02-12T17:11:36.861Z,1.29
2023-02-12T17:20:14.439Z,1.25
2023-02-12T17:25:22.017Z,1.13
2023-02-12T17:30:32.773Z,1.05
2023-02-12T17:35:40.949Z,0.93
2023-02-12T17:40:48.481Z,0.78
2023-02-12T17:45:58.194Z,0.60
2023-02-12T17:51:06.397Z,0.41
2023-02-12T17:56:15.424Z,0.30
2023-02-12T18:01:24.703Z,0.28
2023-02-12T18:06:34.600Z,0.27
2023-02-12T18:11:43.461Z,0.20
2023-02-12T18:21:12.312Z,0.10
2023-02-12T18:26:21.636Z,-0.03
2023-02-12T18:31:30.140Z,-0.11
2023-02-12T18:36:37.992Z,-0.13
2023-02-12T18:41:46.743Z,-0.14
2023-02-12T18:46:55.137Z,-0.17
2023-02-12T18:52:04.014Z,-0.26
2023-02-12T18:57:11.926Z,-0.40
2023-02-12T19:02:19.633Z,-0.55
2023-02-12T19:07:28.444Z,-0.71
2023-02-12T19:12:36.359Z,-0.78
2023-02-12T19:17:43.971Z,-0.80
2023-02-12T19:22:51.696Z,-0.82
2023-02-12T19:27:59.950Z,-0.69
2023-02-12T19:33:08.455Z,-0.50
2023-02-12T19:38:16.289Z,-0.35
2023-02-12T19:43:24.259Z,-0.27
2023-02-12T19:48:32.069Z,-0.25
2023-02-12T19:53:40.110Z,-0.35
2023-02-12T19:58:48.112Z,-0.39
2023-02-12T20:03:57.133Z,-0.38
2023-02-12T20:09:06.368Z,-0.41
2023-02-12T20:14:15.454Z,-0.49
2023-02-12T20:19:26.310Z,-0.42
2023-02-12T20:24:35.756Z,-0.29
2023-02-12T20:29:43.532Z,-0.20
2023-02-12T20:34:54.478Z,-0.16
2023-02-12T20:40:02.091Z,-0.18
2023-02-12T20:45:10.514Z,-0.23
2023-02-12T20:50:18.410Z,-0.27
2023-02-12T20:55:25.880Z,-0.31
2023-02-12T21:00:33.874Z,-0.33
2023-02-12T21:05:42.614Z,-0.32
2023-02-12T21:10:50.038Z,-0.33
2023-02-12T21:16:07.288Z,-0.35
2023-02-12T21:21:17.608Z,-0.36
2023-02-12T21:26:28.721Z,-0.40
2023-02-12T21:31:39.137Z,-0.44
2023-02-12T21:36:48.685Z,-0.43
2023-02-12T21:41:58.186Z,-0.41
2023-02-12T21:47:07.534Z,-0.41
2023-02-12T21:52:15.303Z,-0.37
2023-02-12T21:57:23.277Z,-0.34
2023-02-12T22:02:31.068Z,-0.32
2023-02-12T22:07:38.613Z,-0.26
2023-02-12T22:12:46.006Z,-0.24
2023-02-12T22:17:53.990Z,-0.18
2023-02-12T22:28:30.957Z,-0.07
2023-02-12T22:33:36.627Z,-0.03
2023-02-12T22:38:41.671Z,0.01
2023-02-12T22:43:45.972Z,0.05
2023-02-12T22:48:50.112Z,0.05
2023-02-12T22:53:55.829Z,0.00
2023-02-12T22:59:02.052Z,0.04
2023-02-12T23:04:06.727Z,0.08
2023-02-12T23:09:13.819Z,0.08
2023-02-12T23:14:18.330Z,0.07
2023-02-12T23:19:22.560Z,0.07
2023-02-12T23:24:27.051Z,0.10
2023-02-12T23:29:31.073Z,0.15
2023-02-12T23:34:34.913Z,0.22
2023-02-12T23:39:38.998Z,0.27
2023-02-12T23:44:42.725Z,0.27
2023-02-12T23:49:46.443Z,0.25
2023-02-12T23:54:50.586Z,0.26
2023-02-12T23:59:54.848Z,0.24
